createdAt,value
2023-03-01T00:00:39.774Z,3.73
2023-03-01T00:03:12.242Z,3.72
2023-03-01T00:05:47.939Z,3.69
2023-03-01T00:08:17.701Z,3.67
2023-03-01T00:10:47.501Z,3.65
2023-03-01T00:13:17.294Z,3.63
2023-03-01T00:15:47.047Z,3.60
2023-03-01T00:18:19.444Z,3.57
2023-03-01T00:20:53.963Z,3.56
2023-03-01T00:23:23.791Z,3.53
2023-03-01T00:25:53.595Z,3.50
2023-03-01T00:28:23.855Z,3.48
2023-03-01T00:30:53.676Z,3.47
2023-03-01T00:33:26.261Z,3.44
2023-03-01T00:35:56.041Z,3.40
2023-03-01T00:38:25.792Z,3.38
2023-03-01T00:40:55.687Z,3.34
2023-03-01T00:43:25.579Z,3.28
2023-03-01T00:45:55.334Z,3.22
2023-03-01T00:48:27.792Z,3.16
2023-03-01T00:50:57.535Z,3.12
2023-03-01T00:53:29.769Z,3.09
2023-03-01T00:56:01.102Z,3.06
2023-03-01T00:58:31.042Z,3.02
2023-03-01T01:01:00.809Z,2.99
2023-03-01T01:03:33.174Z,2.95
2023-03-01T01:06:10.444Z,2.92
2023-03-01T01:08:41.051Z,2.88
2023-03-01T01:11:13.083Z,2.85
2023-03-01T01:13:43.265Z,2.82
2023-03-01T01:16:13.149Z,2.79
2023-03-01T01:18:45.875Z,2.76
2023-03-01T01:21:18.890Z,2.73
2023-03-01T01:23:49.742Z,2.71
2023-03-01T01:26:22.365Z,2.70
2023-03-01T01:28:52.293Z,2.69
2023-03-01T01:31:26.267Z,2.69
2023-03-01T01:33:59.643Z,2.68
2023-03-01T01:36:29.817Z,2.67
2023-03-01T01:45:41.808Z,2.63
2023-03-01T01:48:21.021Z,2.62
2023-03-01T01:50:59.367Z,2.60
2023-03-01T01:53:30.303Z,2.58
2023-03-01T01:56:04.302Z,2.59
2023-03-01T01:58:34.662Z,2.56
2023-03-01T02:01:04.836Z,2.54
2023-03-01T02:03:38.742Z,2.52
2023-03-01T02:06:19.325Z,2.51
2023-03-01T02:08:52.762Z,2.49
2023-03-01T02:11:23.148Z,2.47
2023-03-01T02:13:53.087Z,2.47
2023-03-01T02:16:23.444Z,2.45
2023-03-01T02:18:54.467Z,2.43
2023-03-01T02:21:40.313Z,2.43
2023-03-01T02:24:21.371Z,2.39
2023-03-01T02:26:56.350Z,2.37
2023-03-01T02:29:30.583Z,2.35
2023-03-01T02:32:04.169Z,2.34
2023-03-01T02:34:35.356Z,2.32
2023-03-01T02:37:07.857Z,2.31
2023-03-01T02:39:43.126Z,2.28
2023-03-01T02:42:16.368Z,2.25
2023-03-01T02:44:48.804Z,2.23
2023-03-01T02:47:18.545Z,2.19
2023-03-01T02:49:48.309Z,2.13
2023-03-01T02:52:34.402Z,2.09
2023-03-01T02:55:07.363Z,2.09
2023-03-01T02:57:44.208Z,2.11
2023-03-01T03:00:23.068Z,2.15
2023-03-01T03:02:54.737Z,2.21
2023-03-01T03:05:27.021Z,2.24
2023-03-01T03:07:58.002Z,2.26
2023-03-01T03:10:40.685Z,2.32
2023-03-01T03:13:12.903Z,2.35
2023-03-01T03:15:46.240Z,2.38
2023-03-01T03:18:21.619Z,2.41
2023-03-01T03:20:54.135Z,2.44
2023-03-01T03:23:24.858Z,2.47
2023-03-01T03:25:55.144Z,2.49
2023-03-01T03:28:25.012Z,2.53
2023-03-01T03:30:57.473Z,2.56
2023-03-01T03:33:27.302Z,2.56
2023-03-01T03:35:57.231Z,2.59
2023-03-01T03:38:27.336Z,2.61
2023-03-01T03:41:05.005Z,2.61
2023-03-01T03:43:36.711Z,2.60
2023-03-01T03:46:09.598Z,2.60
2023-03-01T03:48:41.477Z,2.60
2023-03-01T03:51:13.518Z,2.58
2023-03-01T03:53:44.161Z,2.55
2023-03-01T03:56:14.697Z,2.50
2023-03-01T03:58:44.589Z,2.47
2023-03-01T04:01:16.964Z,2.45
2023-03-01T04:03:47.638Z,2.42
2023-03-01T04:06:17.957Z,2.39
2023-03-01T04:08:47.704Z,2.36
2023-03-01T04:11:32.414Z,2.34
2023-03-01T04:14:02.701Z,2.30
2023-03-01T04:16:35.107Z,2.29
2023-03-01T04:19:04.891Z,2.27
2023-03-01T04:21:34.631Z,2.24
2023-03-01T04:24:04.883Z,2.23
2023-03-01T04:26:34.669Z,2.19
2023-03-01T04:29:04.442Z,2.17
2023-03-01T04:31:36.835Z,2.14
2023-03-01T04:34:06.601Z,2.11
2023-03-01T04:36:37.018Z,2.08
2023-03-01T04:39:13.420Z,2.04
2023-03-01T04:41:44.314Z,2.00
2023-03-01T04:44:14.109Z,1.97
2023-03-01T04:46:46.486Z,1.92
2023-03-01T04:49:17.137Z,1.88
2023-03-01T04:51:46.934Z,1.86
2023-03-01T04:54:19.929Z,1.85
2023-03-01T04:56:49.725Z,1.81
2023-03-01T04:59:25.079Z,1.79
2023-03-01T05:02:01.551Z,1.79
2023-03-01T05:04:31.398Z,1.77
2023-03-01T05:07:01.209Z,1.77
2023-03-01T05:09:31.075Z,1.76
2023-03-01T05:12:00.912Z,1.76
2023-03-01T05:14:30.718Z,1.73
2023-03-01T05:17:05.013Z,1.72
2023-03-01T05:19:34.831Z,1.72
2023-03-01T05:22:07.510Z,1.70
2023-03-01T05:24:39.725Z,1.72
2023-03-01T05:27:10.071Z,1.72
2023-03-01T05:29:40.709Z,1.72
2023-03-01T05:32:16.799Z,1.72
2023-03-01T05:34:47.472Z,1.74
2023-03-01T05:37:17.762Z,1.73
2023-03-01T05:39:48.927Z,1.75
2023-03-01T05:42:20.999Z,1.75
2023-03-01T05:44:50.807Z,1.73
2023-03-01T05:47:23.311Z,1.73
2023-03-01T05:49:53.489Z,1.74
2023-03-01T05:52:23.374Z,1.71
2023-03-01T05:54:53.266Z,1.72
2023-03-01T05:57:23.147Z,1.71
2023-03-01T05:59:53.031Z,1.69
2023-03-01T06:02:25.552Z,1.66
2023-03-01T06:04:55.549Z,1.65
2023-03-01T06:07:25.537Z,1.64
2023-03-01T06:09:55.416Z,1.60
2023-03-01T06:12:25.316Z,1.58
2023-03-01T06:14:55.132Z,1.56
2023-03-01T06:17:27.586Z,1.55
2023-03-01T06:19:57.335Z,1.51
2023-03-01T06:22:27.574Z,1.50
2023-03-01T06:24:57.326Z,1.46
2023-03-01T06:27:27.087Z,1.42
2023-03-01T06:29:56.881Z,1.39
2023-03-01T06:32:29.391Z,1.39
2023-03-01T06:34:59.690Z,1.39
2023-03-01T06:37:29.842Z,1.40
2023-03-01T06:39:59.621Z,1.40
2023-03-01T06:42:29.427Z,1.41
2023-03-01T06:44:59.162Z,1.39
2023-03-01T06:47:31.518Z,1.39
2023-03-01T06:50:01.340Z,1.39
2023-03-01T06:52:31.162Z,1.40
2023-03-01T06:55:00.970Z,1.39
2023-03-01T06:57:30.970Z,1.43
2023-03-01T07:00:00.734Z,1.43
2023-03-01T07:02:33.324Z,1.44
2023-03-01T07:05:03.102Z,1.44
2023-03-01T07:07:32.850Z,1.45
2023-03-01T07:10:03.410Z,1.46
2023-03-01T07:12:33.167Z,1.47
2023-03-01T07:15:02.967Z,1.49
2023-03-01T07:17:40.527Z,1.50
2023-03-01T07:20:11.393Z,1.50
2023-03-01T07:22:43.788Z,1.49
2023-03-01T07:25:14.088Z,1.51
2023-03-01T07:27:43.911Z,1.54
2023-03-01T07:30:14.869Z,1.57
2023-03-01T07:32:47.325Z,1.60
2023-03-01T07:35:20.686Z,1.63
2023-03-01T07:37:50.420Z,1.66
2023-03-01T07:40:20.415Z,1.72
2023-03-01T07:42:50.249Z,1.73
2023-03-01T07:45:20.120Z,1.79
2023-03-01T07:47:54.565Z,1.81
2023-03-01T07:50:25.189Z,1.85
2023-03-01T07:52:55.291Z,1.89
2023-03-01T07:55:25.188Z,1.94
2023-03-01T07:57:55.042Z,1.95
2023-03-01T08:00:25.365Z,2.02
2023-03-01T08:03:00.360Z,2.05
2023-03-01T08:05:30.568Z,2.09
2023-03-01T08:08:00.401Z,2.15
2023-03-01T08:10:30.271Z,2.22
2023-03-01T08:13:00.130Z,2.29
2023-03-01T08:15:30.396Z,2.39
2023-03-01T08:18:25.258Z,2.51
2023-03-01T08:21:14.176Z,2.66
2023-03-01T08:23:44.846Z,2.83
2023-03-01T08:26:16.696Z,2.96
2023-03-01T08:29:13.694Z,3.15
2023-03-01T08:31:46.630Z,3.33
2023-03-01T08:34:21.079Z,3.49
2023-03-01T08:36:52.866Z,3.63
2023-03-01T08:39:24.193Z,3.80
2023-03-01T08:41:54.061Z,4.00
2023-03-01T08:44:24.724Z,4.22
2023-03-01T08:46:56.789Z,4.37
2023-03-01T08:49:29.275Z,4.51
2023-03-01T08:51:59.141Z,4.66
2023-03-01T08:54:29.314Z,4.83
2023-03-01T08:57:00.278Z,4.99
2023-03-01T08:59:31.021Z,5.19
2023-03-01T09:02:00.985Z,5.40
2023-03-01T09:04:34.450Z,5.60
2023-03-01T09:07:04.272Z,5.80
2023-03-01T09:09:34.119Z,5.99
2023-03-01T09:12:10.820Z,6.18
2023-03-01T09:14:43.653Z,6.35
2023-03-01T09:17:13.627Z,6.53
2023-03-01T09:19:46.336Z,6.67
2023-03-01T09:22:16.168Z,6.83
2023-03-01T09:24:46.046Z,6.94
2023-03-01T09:27:15.872Z,7.06
2023-03-01T09:29:45.639Z,7.18
2023-03-01T09:32:15.852Z,7.29
2023-03-01T09:35:00.784Z,7.40
2023-03-01T09:37:31.087Z,7.49
2023-03-01T09:40:01.113Z,7.55
2023-03-01T09:42:34.715Z,7.62
2023-03-01T09:45:08.099Z,7.69
2023-03-01T09:47:41.620Z,7.74
2023-03-01T09:50:18.623Z,7.79
2023-03-01T09:52:52.566Z,7.87
2023-03-01T09:55:32.480Z,7.94
2023-03-01T09:58:10.629Z,7.97
2023-03-01T10:00:45.887Z,8.03
2023-03-01T10:03:21.922Z,8.08
2023-03-01T10:06:04.077Z,8.11
2023-03-01T10:08:40.081Z,8.03
2023-03-01T10:11:25.106Z,7.97
2023-03-01T10:14:00.874Z,7.91
2023-03-01T10:16:35.989Z,7.85
2023-03-01T10:19:08.846Z,7.79
2023-03-01T10:21:48.851Z,7.74
2023-03-01T10:24:22.801Z,7.76
2023-03-01T10:27:00.339Z,7.80
2023-03-01T10:29:35.633Z,7.83
2023-03-01T10:32:08.781Z,7.80
2023-03-01T10:34:40.404Z,7.82
2023-03-01T10:37:19.466Z,7.82
2023-03-01T10:40:00.194Z,7.72
2023-03-01T10:42:33.400Z,7.60
2023-03-01T10:45:20.545Z,7.54
2023-03-01T10:47:50.382Z,7.43
2023-03-01T10:50:24.864Z,7.36
2023-03-01T10:53:07.764Z,7.25
2023-03-01T10:55:40.808Z,7.14
2023-03-01T10:58:20.263Z,7.11
2023-03-01T11:00:52.475Z,7.11
2023-03-01T11:03:26.000Z,7.11
2023-03-01T11:05:59.455Z,7.09
2023-03-01T11:08:50.593Z,7.02
2023-03-01T11:11:28.863Z,6.98
2023-03-01T11:14:01.757Z,6.98
2023-03-01T11:16:36.124Z,6.94
2023-03-01T11:19:19.470Z,6.98
2023-03-01T11:22:03.836Z,6.99
2023-03-01T11:24:43.463Z,7.01
2023-03-01T11:27:21.108Z,7.01
2023-03-01T11:29:56.443Z,7.00
2023-03-01T11:32:30.954Z,7.01
2023-03-01T11:35:05.716Z,7.07
2023-03-01T11:37:42.062Z,7.08
2023-03-01T11:40:33.932Z,7.13
2023-03-01T11:43:18.998Z,7.17
2023-03-01T11:52:15.399Z,7.31
2023-03-01T11:55:49.427Z,7.31
2023-03-01T11:58:33.883Z,7.35
2023-03-01T12:01:15.123Z,7.36
2023-03-01T12:04:17.833Z,7.47
2023-03-01T12:07:00.408Z,7.48
2023-03-01T12:09:53.478Z,7.50
2023-03-01T12:12:38.899Z,7.51
2023-03-01T12:15:37.406Z,7.52
2023-03-01T12:18:20.134Z,7.54
2023-03-01T12:21:01.152Z,7.55
2023-03-01T12:24:18.184Z,7.59
2023-03-01T12:26:59.399Z,7.62
2023-03-01T12:29:35.453Z,7.67
2023-03-01T12:32:38.868Z,7.68
2023-03-01T12:35:33.235Z,7.70
2023-03-01T12:38:15.049Z,7.72
2023-03-01T12:41:05.560Z,7.75
2023-03-01T12:43:48.306Z,7.82
2023-03-01T12:46:30.438Z,7.84
2023-03-01T12:49:11.885Z,7.86
2023-03-01T12:51:43.915Z,7.85
2023-03-01T12:54:19.952Z,7.85
2023-03-01T12:56:53.592Z,7.89
2023-03-01T12:59:29.762Z,7.90
2023-03-01T13:02:08.698Z,7.91
2023-03-01T13:04:52.334Z,7.89
2023-03-01T13:07:32.357Z,7.88
2023-03-01T13:10:15.816Z,7.90
2023-03-01T13:13:04.130Z,7.95
2023-03-01T13:15:40.995Z,7.96
2023-03-01T13:21:02.697Z,7.93
2023-03-01T13:23:52.479Z,7.93
2023-03-01T13:26:26.420Z,7.98
2023-03-01T13:29:01.860Z,8.01
2023-03-01T13:32:05.785Z,8.02
2023-03-01T13:34:50.855Z,8.08
2023-03-01T13:37:30.630Z,8.12
2023-03-01T13:40:09.081Z,8.15
2023-03-01T13:42:56.269Z,8.14
2023-03-01T13:45:41.024Z,8.10
2023-03-01T13:48:17.635Z,8.12
2023-03-01T13:50:54.751Z,8.17
2023-03-01T13:53:30.175Z,8.21
2023-03-01T13:56:04.591Z,8.22
2023-03-01T13:58:39.548Z,8.17
2023-03-01T14:01:10.823Z,8.13
2023-03-01T14:03:45.769Z,8.08
2023-03-01T14:06:21.003Z,8.04
2023-03-01T14:08:56.775Z,8.04
2023-03-01T14:12:02.381Z,8.09
2023-03-01T14:14:51.642Z,8.07
2023-03-01T14:17:38.724Z,8.03
2023-03-01T14:20:16.275Z,8.02
2023-03-01T14:22:47.420Z,8.02
2023-03-01T14:25:27.613Z,8.05
2023-03-01T14:28:05.744Z,8.03
2023-03-01T14:30:41.393Z,8.03
2023-03-01T14:33:23.783Z,8.04
2023-03-01T14:36:00.007Z,8.03
2023-03-01T14:38:37.590Z,8.03
2023-03-01T14:41:13.797Z,7.98
2023-03-01T14:43:48.808Z,7.98
2023-03-01T14:46:24.262Z,8.01
2023-03-01T14:48:56.596Z,8.00
2023-03-01T14:51:26.850Z,8.02
2023-03-01T14:54:00.512Z,8.02
2023-03-01T14:56:48.496Z,8.01
2023-03-01T14:59:18.276Z,7.94
2023-03-01T15:01:48.760Z,7.89
2023-03-01T15:04:18.803Z,7.85
2023-03-01T15:06:49.492Z,7.72
2023-03-01T15:09:21.240Z,7.64
2023-03-01T15:12:23.872Z,7.50
2023-03-01T15:15:03.826Z,7.34
2023-03-01T15:17:37.043Z,7.26
2023-03-01T15:20:11.356Z,7.18
2023-03-01T15:22:41.222Z,7.10
2023-03-01T15:25:19.347Z,7.04
2023-03-01T15:27:50.313Z,6.97
2023-03-01T15:30:28.418Z,6.94
2023-03-01T15:33:23.962Z,6.92
2023-03-01T15:35:55.560Z,6.91
2023-03-01T15:38:34.643Z,6.89
2023-03-01T15:41:06.510Z,6.87
2023-03-01T15:43:50.894Z,6.87
2023-03-01T15:46:29.016Z,6.84
2023-03-01T15:49:01.363Z,6.80
2023-03-01T15:51:34.192Z,6.75
2023-03-01T15:54:08.124Z,6.72
2023-03-01T15:56:38.058Z,6.69
2023-03-01T15:59:08.377Z,6.66
2023-03-01T16:01:40.846Z,6.62
2023-03-01T16:04:10.997Z,6.59
2023-03-01T16:06:41.021Z,6.57
2023-03-01T16:09:11.590Z,6.55
2023-03-01T16:11:43.520Z,6.51
2023-03-01T16:14:13.644Z,6.48
2023-03-01T16:16:46.312Z,6.45
2023-03-01T16:19:19.948Z,6.41
2023-03-01T16:21:52.900Z,6.39
2023-03-01T16:24:22.660Z,6.34
2023-03-01T16:26:52.621Z,6.24
2023-03-01T16:29:22.488Z,6.20
2023-03-01T16:31:54.982Z,6.14
2023-03-01T16:34:25.129Z,6.10
2023-03-01T16:36:54.882Z,6.05
2023-03-01T16:39:24.715Z,6.04
2023-03-01T16:41:54.521Z,6.03
2023-03-01T16:44:24.513Z,6.01
2023-03-01T16:46:57.195Z,6.02
2023-03-01T16:49:26.954Z,5.98
2023-03-01T16:51:57.641Z,5.94
2023-03-01T16:54:27.435Z,5.89
2023-03-01T16:56:57.242Z,5.82
2023-03-01T16:59:29.407Z,5.78
2023-03-01T17:02:01.835Z,5.76
2023-03-01T17:04:31.644Z,5.72
2023-03-01T17:07:01.598Z,5.71
2023-03-01T17:09:31.597Z,5.67
2023-03-01T17:12:01.683Z,5.64
2023-03-01T17:14:31.506Z,5.59
2023-03-01T17:17:04.180Z,5.57
2023-03-01T17:19:34.818Z,5.53
2023-03-01T17:22:04.841Z,5.50
2023-03-01T17:24:36.438Z,5.43
2023-03-01T17:27:06.652Z,5.40
2023-03-01T17:29:37.005Z,5.36
2023-03-01T17:32:10.117Z,5.32
2023-03-01T17:34:40.710Z,5.30
2023-03-01T17:37:10.765Z,5.29
2023-03-01T17:39:40.567Z,5.26
2023-03-01T17:42:10.453Z,5.21
2023-03-01T17:44:41.386Z,5.15
2023-03-01T17:47:15.416Z,5.09
2023-03-01T17:49:45.269Z,5.01
2023-03-01T17:52:15.035Z,4.93
2023-03-01T17:54:44.898Z,4.87
2023-03-01T17:57:15.397Z,4.85
2023-03-01T17:59:45.244Z,4.83
2023-03-01T18:02:19.359Z,4.82
2023-03-01T18:04:49.396Z,4.77
2023-03-01T18:07:19.163Z,4.74
2023-03-01T18:09:48.987Z,4.66
2023-03-01T18:12:18.767Z,4.59
2023-03-01T18:14:53.757Z,4.58
2023-03-01T18:17:27.558Z,4.57
2023-03-01T18:19:57.417Z,4.54
2023-03-01T18:22:27.223Z,4.50
2023-03-01T18:24:57.111Z,4.48
2023-03-01T18:27:27.417Z,4.44
2023-03-01T18:29:57.280Z,4.39
2023-03-01T18:32:29.851Z,4.38
2023-03-01T18:34:59.880Z,4.40
2023-03-01T18:37:29.682Z,4.40
2023-03-01T18:39:59.599Z,4.39
2023-03-01T18:42:29.367Z,4.41
2023-03-01T18:44:59.394Z,4.42
2023-03-01T18:47:31.777Z,4.39
2023-03-01T18:50:01.633Z,4.40
2023-03-01T18:52:31.437Z,4.37
2023-03-01T18:55:01.275Z,4.33
2023-03-01T18:57:31.626Z,4.32
2023-03-01T19:00:01.415Z,4.32
2023-03-01T19:02:33.977Z,4.33
2023-03-01T19:05:04.067Z,4.36
2023-03-01T19:07:34.424Z,4.36
2023-03-01T19:10:04.549Z,4.37
2023-03-01T19:12:35.252Z,4.38
2023-03-01T19:15:05.263Z,4.37
2023-03-01T19:17:38.143Z,4.39
2023-03-01T19:20:09.911Z,4.38
2023-03-01T19:22:40.600Z,4.36
2023-03-01T19:25:11.703Z,4.35
2023-03-01T19:27:41.555Z,4.35
2023-03-01T19:30:31.246Z,4.37
2023-03-01T19:33:03.650Z,4.36
2023-03-01T19:35:33.675Z,4.33
2023-03-01T19:38:03.563Z,4.29
2023-03-01T19:40:33.325Z,4.25
2023-03-01T19:43:03.078Z,4.24
2023-03-01T19:45:34.679Z,4.26
2023-03-01T19:48:08.130Z,4.28
2023-03-01T19:50:38.530Z,4.29
2023-03-01T19:53:08.284Z,4.29
2023-03-01T19:55:40.058Z,4.29
2023-03-01T19:58:10.735Z,4.29
2023-03-01T20:00:41.243Z,4.30
2023-03-01T20:03:13.748Z,4.30
2023-03-01T20:05:43.911Z,4.31
2023-03-01T20:08:13.739Z,4.28
2023-03-01T20:10:43.526Z,4.25
2023-03-01T20:13:13.411Z,4.27
2023-03-01T20:15:45.668Z,4.29
2023-03-01T20:18:18.175Z,4.32
2023-03-01T20:20:52.163Z,4.33
2023-03-01T20:23:22.289Z,4.35
2023-03-01T20:25:52.135Z,4.37
2023-03-01T20:28:22.870Z,4.41
2023-03-01T20:30:52.984Z,4.41
2023-03-01T20:33:26.217Z,4.39
2023-03-01T20:35:56.265Z,4.37
2023-03-01T20:38:26.414Z,4.33
2023-03-01T20:41:01.023Z,4.32
2023-03-01T20:43:31.132Z,4.31
2023-03-01T20:46:01.085Z,4.32
2023-03-01T20:48:33.644Z,4.36
2023-03-01T20:51:07.391Z,4.35
2023-03-01T20:53:37.156Z,4.34
2023-03-01T20:56:07.835Z,4.36
2023-03-01T20:58:38.071Z,4.38
2023-03-01T21:01:09.410Z,4.36
2023-03-01T21:03:41.824Z,4.36
2023-03-01T21:06:11.696Z,4.33
2023-03-01T21:08:41.580Z,4.31
2023-03-01T21:11:11.508Z,4.31
2023-03-01T21:13:41.890Z,4.36
2023-03-01T21:16:14.776Z,4.36
2023-03-01T21:18:47.167Z,4.34
2023-03-01T21:21:18.896Z,4.33
2023-03-01T21:23:49.370Z,4.33
2023-03-01T21:26:20.734Z,4.32
2023-03-01T21:28:51.546Z,4.32
2023-03-01T21:31:22.892Z,4.32
2023-03-01T21:33:57.054Z,4.30
2023-03-01T21:36:28.091Z,4.27
2023-03-01T21:38:58.287Z,4.28
2023-03-01T21:41:36.982Z,4.24
2023-03-01T21:44:09.413Z,4.21
2023-03-01T21:46:41.288Z,4.20
2023-03-01T21:49:26.153Z,4.21
2023-03-01T21:52:01.293Z,4.19
2023-03-01T21:54:32.009Z,4.17
2023-03-01T21:57:02.420Z,4.15
2023-03-01T21:59:32.236Z,4.17
2023-03-01T22:02:02.031Z,4.16
2023-03-01T22:04:34.441Z,4.14
2023-03-01T22:07:04.227Z,4.07
2023-03-01T22:09:36.331Z,4.04
2023-03-01T22:12:06.739Z,4.04
2023-03-01T22:14:36.538Z,4.03
2023-03-01T22:32:58.116Z,4.06
2023-03-01T22:45:52.732Z,3.95
2023-03-01T22:48:22.617Z,3.95
2023-03-01T22:50:55.951Z,3.92
2023-03-01T22:53:26.013Z,3.87
2023-03-01T22:55:55.841Z,3.86
2023-03-01T22:58:28.252Z,3.82
2023-03-01T23:00:59.573Z,3.81
2023-03-01T23:03:29.478Z,3.85
2023-03-01T23:05:59.266Z,3.85
2023-03-01T23:08:29.017Z,3.87
2023-03-01T23:10:59.266Z,3.87
2023-03-01T23:13:33.282Z,3.86
2023-03-01T23:16:03.118Z,3.84
2023-03-01T23:18:32.925Z,3.81
2023-03-01T23:21:03.515Z,3.79
2023-03-01T23:23:36.456Z,3.78
2023-03-01T23:26:06.430Z,3.78
2023-03-01T23:28:40.767Z,3.82
2023-03-01T23:31:13.867Z,3.79
2023-03-01T23:33:45.350Z,3.75
2023-03-01T23:36:20.107Z,3.72
2023-03-01T23:38:51.077Z,3.68
2023-03-01T23:41:22.799Z,3.66
2023-03-01T23:43:56.723Z,3.63
2023-03-01T23:46:29.147Z,3.60
2023-03-01T23:48:59.900Z,3.60
2023-03-01T23:51:29.975Z,3.62
2023-03-01T23:54:06.209Z,3.62
2023-03-01T23:56:38.582Z,3.62
2023-03-01T23:59:14.525Z,3.62
